This is the latest recevied weather packets stored in our database for station/object VE6CWS-7. If no packets are shown the sender has not sent any weather packets the latest 10 day(s).
| Time | Temp. | Humidity | Pressure | Rain* | Wind** | Luminosity | Snow |
|---|---|---|---|---|---|---|---|
| 1777643164 | 3.89° C | 79% | 1014.5 hPa | 0 mm | - | - | - |
| 1777642252 | 2.78° C | 81% | 1014.4 hPa | 0 mm | - | - | - |
| 1777641355 | 1.67° C | 82% | 1014.3 hPa | 0 mm | - | - | - |
| 1777640503 | 1.11° C | 86% | 1014.3 hPa | 0 mm | - | - | - |
| 1777639544 | 0° C | 86% | 1014.2 hPa | 0 mm | - | - | - |
| 1777638641 | 0° C | 85% | 1014.1 hPa | 0 mm | - | - | - |
| 1777637739 | 0.56° C | 84% | 1014.2 hPa | 0 mm | - | - | - |
| 1777636898 | 0.56° C | 85% | 1014.3 hPa | 0 mm | - | - | - |
| 1777635943 | 0° C | 84% | 1014.2 hPa | 0 mm | - | - | - |
| 1777635055 | 1.11° C | 81% | 1014.1 hPa | 0 mm | - | - | - |
| 1777634136 | 1.67° C | 80% | 1014.1 hPa | 0 mm | - | - | - |
| 1777633295 | 1.67° C | 80% | 1014.2 hPa | 0 mm | - | - | - |
| 1777632412 | 1.67° C | 78% | 1014.1 hPa | 0 mm | - | - | - |
| 1777631470 | 1.67° C | 78% | 1014.2 hPa | 0 mm | - | - | - |
| 1777630565 | 2.78° C | 73% | 1014.4 hPa | 0 mm | - | - | - |
| 1777629709 | 3.89° C | 72% | 1014.1 hPa | 0 mm | - | - | - |
| 1777628763 | 4.44° C | 70% | 1014.2 hPa | 0 mm | - | - | - |
| 1777627849 | 5° C | 70% | 1014.1 hPa | 0 mm | - | - | - |
| 1777626945 | 5° C | 70% | 1014.4 hPa | 0 mm | - | - | - |
| 1777626103 | 5° C | 70% | 1014.3 hPa | 0 mm | - | - | - |
| 1777625142 | 5.56° C | 70% | 1014.2 hPa | 0 mm | - | - | - |
| 1777624255 | 5.56° C | 69% | 1014.3 hPa | 0 mm | - | - | - |
| 1777623338 | 5.56° C | 68% | 1014.3 hPa | 0 mm | - | - | - |
| 1777622402 | 5.56° C | 68% | 1014.3 hPa | 0 mm | - | - | - |
| 1777621558 | 6.11° C | 67% | 1014.4 hPa | 0 mm | - | - | - |
* Rain latest hour (hover to see other rain measurements)
** Current wind speed in m/s (hover to see current wind gust speed)